Terminal Aerodrome Forecast
Issued by NWS Green Bay, WI

Home | Current Version | Previous Version | Text Only | Print | Product List | Glossary Off
Versions: 1 2 3 4 5 6 7 8 9 10 11 12 13 14 15 16 17 18 19 20 21 22 23 24 25 26 27 28 29 30 31 32 33

000
FTUS43 KGRB 011200 AAA
TAFGRB
TAF AMD
KGRB 011224Z 0112/0212 23010KT P6SM -SN BKN035
      TEMPO 0112/0116 BKN025
     FM020200 27012G20KT P6SM SCT030
     FM020900 28007KT P6SM SKC=

USA.gov is the U.S. government's official web portal to all federal, state and local government web resources and services.